Time;durP1;ratioP1;P1;durP2;ratioP2;P2;SDS_P1;SDS_P2;PMS_P1;PMS_P2;Temp;Humidity;BMP_temperature;BMP_pressure;BME280_temperature;BME280_humidity;BME280_pressure;Samples;Min_cycle;Max_cycle;Signal;HPM_P1;HPM_P2
2021/04/21 00:01:02;;;;;;;21.33;18.40;;;8.50;99.90;;;;;;5019480;28;20554;-65
2021/04/21 00:03:29;;;;;;;20.80;18.40;;;8.50;99.90;;;;;;5031654;28;20431;-64
2021/04/21 00:05:55;;;;;;;22.53;19.03;;;8.50;99.90;;;;;;5030238;28;20437;-64
2021/04/21 00:08:21;;;;;;;20.27;18.07;;;8.50;99.90;;;;;;5031265;28;20447;-63
2021/04/21 00:10:48;;;;;;;19.70;17.50;;;8.60;99.90;;;;;;5027844;28;20207;-64
2021/04/21 00:13:15;;;;;;;20.93;18.73;;;8.60;99.90;;;;;;5031177;28;21051;-64
2021/04/21 00:15:41;;;;;;;21.70;18.80;;;8.60;99.90;;;;;;5028412;28;20528;-63
2021/04/21 00:18:07;;;;;;;24.73;18.53;;;8.70;99.90;;;;;;5021676;28;20734;-64
2021/04/21 00:20:34;;;;;;;19.73;17.60;;;8.70;99.90;;;;;;5022730;28;20445;-65
2021/04/21 00:23:04;;;;;;;21.10;17.87;;;8.70;99.90;;;;;;5025521;28;20837;-64
2021/04/21 00:25:32;;;;;;;20.77;18.37;;;8.70;99.90;;;;;;5018060;28;20957;-65
2021/04/21 00:27:59;;;;;;;21.17;17.57;;;8.80;99.90;;;;;;5019427;28;20989;-64
2021/04/21 00:30:27;;;;;;;21.73;18.17;;;8.70;99.90;;;;;;5027385;28;20484;-63
2021/04/21 00:32:54;;;;;;;19.83;17.73;;;8.80;99.90;;;;;;5031079;28;20584;-64
2021/04/21 00:35:27;;;;;;;21.50;16.97;;;8.80;99.90;;;;;;5029554;28;20456;-64
2021/04/21 00:37:56;;;;;;;19.07;17.07;;;8.80;99.90;;;;;;5030819;28;21008;-65
2021/04/21 00:40:43;;;;;;;21.03;17.30;;;8.80;99.90;;;;;;5024865;28;20449;-64
2021/04/21 00:43:24;;;;;;;18.20;16.20;;;8.80;99.90;;;;;;5029068;28;20435;-64
2021/04/21 00:46:22;;;;;;;19.50;17.17;;;8.70;99.90;;;;;;5024996;28;20452;-64
2021/04/21 00:48:57;;;;;;;19.80;16.83;;;8.70;99.90;;;;;;5021633;28;20477;-64
2021/04/21 00:51:29;;;;;;;19.83;16.87;;;8.70;99.90;;;;;;5028568;28;20505;-64
2021/04/21 00:54:09;;;;;;;20.97;17.60;;;8.60;99.90;;;;;;5030491;28;20480;-65
2021/04/21 00:56:53;;;;;;;20.90;17.67;;;8.60;99.90;;;;;;5027777;28;20452;-64
2021/04/21 01:00:17;;;;;;;20.70;17.43;;;8.50;99.90;;;;;;5029879;28;20459;-64
2021/04/21 01:02:54;;;;;;;19.30;17.30;;;8.50;99.90;;;;;;4960979;28;20942;-65
2021/04/21 01:05:27;;;;;;;21.50;18.17;;;8.40;99.90;;;;;;5015125;28;20447;-64
2021/04/21 01:07:57;;;;;;;20.80;17.90;;;8.40;99.90;;;;;;5045831;28;20456;-64
2021/04/21 01:10:29;;;;;;;22.03;18.10;;;8.40;99.90;;;;;;5028718;28;20467;-63
2021/04/21 01:12:58;;;;;;;20.20;17.60;;;8.40;99.90;;;;;;5029989;28;20494;-64
2021/04/21 01:15:26;;;;;;;20.33;18.17;;;8.40;99.90;;;;;;5031325;28;20445;-64
2021/04/21 01:17:53;;;;;;;21.33;18.10;;;8.30;99.90;;;;;;5029075;28;20448;-64
2021/04/21 01:20:42;;;;;;;20.70;18.17;;;8.30;99.90;;;;;;5028655;28;20440;-64
2021/04/21 01:23:15;;;;;;;20.13;17.80;;;8.30;99.90;;;;;;5028105;28;20459;-63
2021/04/21 01:25:52;;;;;;;21.20;18.00;;;8.30;99.90;;;;;;5030646;28;20956;-62
2021/04/21 01:28:22;;;;;;;19.37;17.27;;;8.30;99.90;;;;;;5035278;28;20454;-65
2021/04/21 01:30:49;;;;;;;19.70;17.60;;;8.30;99.90;;;;;;5029444;28;20475;-64
2021/04/21 01:33:25;;;;;;;21.43;17.47;;;8.20;99.90;;;;;;5027199;28;20879;-64
2021/04/21 01:35:58;;;;;;;20.50;18.30;;;8.10;99.90;;;;;;5029879;28;20449;-63
2021/04/21 01:38:24;;;;;;;21.30;18.13;;;8.10;99.90;;;;;;5028071;28;20479;-64
2021/04/21 01:40:53;;;;;;;20.20;17.30;;;8.10;99.90;;;;;;5044762;28;20432;-63
2021/04/21 01:43:28;;;;;;;22.33;18.50;;;8.10;99.90;;;;;;5028963;28;20539;-65
2021/04/21 01:45:57;;;;;;;23.67;17.47;;;8.00;99.90;;;;;;5027675;28;20448;-64
2021/04/21 01:48:24;;;;;;;22.83;18.60;;;8.00;99.90;;;;;;5028170;28;20459;-63
2021/04/21 01:50:51;;;;;;;22.77;18.07;;;8.00;99.90;;;;;;5044655;28;20486;-63
2021/04/21 01:53:41;;;;;;;19.33;17.23;;;8.00;99.90;;;;;;5024489;28;20472;-65
2021/04/21 01:56:28;;;;;;;20.20;17.40;;;7.90;99.90;;;;;;5028714;28;20505;-64
2021/04/21 01:59:23;;;;;;;19.43;16.80;;;7.90;99.90;;;;;;5024979;28;20424;-66
2021/04/21 02:02:22;;;;;;;20.90;17.60;;;7.90;99.90;;;;;;5027772;28;20505;-64
2021/04/21 02:05:00;;;;;;;18.43;15.83;;;7.80;99.90;;;;;;5023431;28;20470;-63
2021/04/21 02:07:57;;;;;;;20.70;17.63;;;7.70;99.90;;;;;;5028652;28;21284;-65
2021/04/21 02:10:37;;;;;;;20.80;17.20;;;7.70;99.90;;;;;;5011432;28;20202;-64
2021/04/21 02:13:28;;;;;;;19.60;17.50;;;7.70;99.90;;;;;;5026480;28;20480;-65
2021/04/21 02:16:25;;;;;;;20.27;17.20;;;7.60;99.90;;;;;;5038770;28;20436;-64
2021/04/21 02:19:05;;;;;;;22.37;17.97;;;7.50;99.90;;;;;;5028316;28;20507;-65
2021/04/21 02:21:46;;;;;;;23.45;19.33;;;7.50;99.90;;;;;;5026869;28;20434;-65
2021/04/21 02:24:20;;;;;;;24.50;19.63;;;7.40;99.90;;;;;;5029006;28;20249;-65
2021/04/21 02:27:16;;;;;;;23.35;19.25;;;7.30;99.90;;;;;;5027171;28;21195;-64
2021/04/21 02:29:54;;;;;;;23.57;18.93;;;7.30;99.90;;;;;;5027720;28;20251;-64
2021/04/21 02:32:24;;;;;;;24.58;19.98;;;7.20;99.90;;;;;;5026431;28;20454;-64
2021/04/21 02:35:02;;;;;;;24.33;18.90;;;7.20;99.90;;;;;;5029075;28;20188;-65
2021/04/21 02:37:43;;;;;;;25.73;18.90;;;7.20;99.90;;;;;;5028345;28;20453;-65
2021/04/21 02:40:33;;;;;;;21.43;17.73;;;7.10;99.90;;;;;;5028330;28;20193;-65
2021/04/21 02:43:21;;;;;;;27.70;19.00;;;7.10;99.90;;;;;;5026413;28;20450;-65
2021/04/21 02:46:30;;;;;;;24.50;18.75;;;7.00;99.90;;;;;;5026963;28;20283;-65
2021/04/21 02:49:14;;;;;;;23.20;18.58;;;7.00;99.90;;;;;;5021647;28;20269;-65
2021/04/21 02:51:52;;;;;;;24.67;19.70;;;7.00;99.90;;;;;;5027743;28;20181;-64
2021/04/21 02:54:38;;;;;;;22.75;18.73;;;6.90;99.90;;;;;;5028033;28;20565;-66
2021/04/21 02:57:29;;;;;;;23.52;18.08;;;6.90;99.90;;;;;;5023170;28;20184;-65
2021/04/21 03:00:03;;;;;;;24.17;18.50;;;6.80;99.90;;;;;;4997771;28;20562;-64
2021/04/21 03:02:45;;;;;;;25.30;19.70;;;6.80;99.90;;;;;;5028788;28;20610;-64
2021/04/21 03:05:21;;;;;;;25.95;18.48;;;6.80;99.90;;;;;;5018265;28;20928;-64
2021/04/21 03:07:53;;;;;;;21.77;18.63;;;6.70;99.90;;;;;;5027848;28;20189;-64
2021/04/21 03:10:22;;;;;;;23.27;19.52;;;6.70;99.90;;;;;;5027701;28;20293;-65
2021/04/21 03:12:54;;;;;;;25.02;19.40;;;6.70;99.90;;;;;;5028601;28;20198;-65
2021/04/21 03:15:21;;;;;;;25.10;19.45;;;6.70;99.90;;;;;;5028903;28;20258;-65
2021/04/21 03:17:51;;;;;;;26.30;19.60;;;6.60;99.90;;;;;;5043368;28;20319;-65
2021/04/21 03:20:20;;;;;;;23.05;18.92;;;6.60;99.90;;;;;;5028080;28;20210;-65
2021/04/21 03:22:51;;;;;;;24.08;18.58;;;6.60;99.90;;;;;;5026139;28;20337;-64
2021/04/21 03:25:23;;;;;;;23.48;18.05;;;6.50;99.90;;;;;;5029782;28;20194;-65
2021/04/21 03:27:53;;;;;;;23.35;18.42;;;6.50;99.90;;;;;;5028744;28;20217;-65
2021/04/21 03:30:22;;;;;;;24.77;19.45;;;6.40;99.90;;;;;;5031311;28;20659;-65
2021/04/21 03:32:52;;;;;;;25.27;20.50;;;6.40;99.90;;;;;;5031168;28;20214;-64
2021/04/21 03:35:19;;;;;;;22.48;18.33;;;6.40;99.90;;;;;;5032037;28;20155;-64
2021/04/21 03:38:08;;;;;;;23.05;19.10;;;6.40;99.90;;;;;;5030437;28;20197;-65
2021/04/21 03:40:35;;;;;;;24.20;18.13;;;6.30;99.90;;;;;;5026556;28;20245;-65
2021/04/21 03:43:01;;;;;;;25.83;18.92;;;6.30;99.90;;;;;;5031181;28;20236;-64
2021/04/21 03:45:28;;;;;;;24.20;18.65;;;6.30;99.90;;;;;;5027908;28;20568;-65
2021/04/21 03:47:55;;;;;;;26.42;20.95;;;6.30;99.90;;;;;;5033957;28;20190;-65
2021/04/21 03:50:22;;;;;;;27.80;20.55;;;6.30;99.90;;;;;;5026539;28;20187;-65
2021/04/21 03:52:54;;;;;;;30.35;19.35;;;6.20;99.90;;;;;;5029940;28;20673;-65
2021/04/21 03:55:20;;;;;;;29.25;21.25;;;6.20;99.90;;;;;;5032000;28;20191;-65
2021/04/21 03:57:48;;;;;;;25.10;19.75;;;6.10;99.90;;;;;;5029632;28;20196;-65
2021/04/21 04:00:16;;;;;;;24.67;20.35;;;6.10;99.90;;;;;;5032019;28;20230;-66
2021/04/21 04:02:49;;;;;;;27.10;19.95;;;6.10;99.90;;;;;;5030496;28;20190;-67
2021/04/21 04:05:19;;;;;;;25.58;20.20;;;6.10;99.90;;;;;;5029366;28;20186;-65
2021/04/21 04:07:45;;;;;;;26.95;21.88;;;6.00;99.90;;;;;;5030692;28;20634;-66
2021/04/21 04:10:13;;;;;;;24.20;19.57;;;6.10;99.90;;;;;;5029609;28;20194;-66
2021/04/21 04:12:43;;;;;;;24.85;19.13;;;6.10;99.90;;;;;;5031299;28;20817;-65
2021/04/21 04:15:11;;;;;;;28.08;21.75;;;6.10;99.90;;;;;;5033458;28;20175;-64
2021/04/21 04:17:40;;;;;;;27.85;20.77;;;6.10;99.90;;;;;;5030223;28;20202;-64
2021/04/21 04:20:14;;;;;;;25.67;19.73;;;6.00;99.90;;;;;;5028849;28;20179;-64
2021/04/21 04:22:50;;;;;;;25.10;20.48;;;6.00;99.90;;;;;;5030144;28;20207;-64
2021/04/21 04:25:17;;;;;;;27.92;22.30;;;6.10;99.90;;;;;;5011621;28;20529;-64
2021/04/21 04:27:44;;;;;;;28.63;21.33;;;6.10;99.90;;;;;;5007265;28;20181;-63
2021/04/21 04:30:12;;;;;;;31.23;22.23;;;6.10;99.90;;;;;;5010549;28;20763;-64
2021/04/21 04:32:41;;;;;;;31.70;22.27;;;6.10;99.90;;;;;;5014666;28;20175;-65
2021/04/21 04:35:08;;;;;;;31.00;22.20;;;6.10;99.90;;;;;;5008800;28;20282;-64
2021/04/21 04:37:40;;;;;;;29.90;23.10;;;6.00;99.90;;;;;;5015322;28;20664;-65
2021/04/21 04:40:13;;;;;;;26.95;22.05;;;6.00;99.90;;;;;;5012731;28;20179;-66
2021/04/21 04:42:38;;;;;;;30.92;22.33;;;6.10;99.90;;;;;;5022703;28;20209;-66
2021/04/21 04:45:06;;;;;;;29.10;21.40;;;6.10;99.90;;;;;;5028590;28;20179;-65
2021/04/21 04:47:36;;;;;;;28.25;21.80;;;6.10;99.90;;;;;;5039069;28;20196;-66
2021/04/21 04:50:07;;;;;;;31.35;22.35;;;6.20;99.90;;;;;;5031085;28;20244;-64
2021/04/21 04:52:34;;;;;;;30.88;22.83;;;6.20;99.90;;;;;;5027582;28;20210;-62
2021/04/21 04:55:02;;;;;;;31.70;23.17;;;6.20;99.90;;;;;;5029825;28;20183;-64
2021/04/21 04:57:32;;;;;;;31.08;24.27;;;6.20;99.90;;;;;;5029917;28;20239;-65
2021/04/21 05:00:00;;;;;;;32.50;23.95;;;6.20;99.90;;;;;;5029651;28;20183;-66
2021/04/21 05:02:33;;;;;;;29.73;23.92;;;6.30;99.90;;;;;;5029383;28;20869;-65
2021/04/21 05:05:02;;;;;;;28.48;22.92;;;6.30;99.90;;;;;;5030412;28;20191;-65
2021/04/21 05:07:38;;;;;;;29.55;22.70;;;6.30;99.90;;;;;;5029142;28;20194;-64
2021/04/21 05:10:08;;;;;;;30.40;23.45;;;6.30;99.90;;;;;;5030142;28;20189;-65
2021/04/21 05:12:37;;;;;;;31.92;22.48;;;6.30;99.90;;;;;;5029818;28;20222;-64
2021/04/21 05:15:05;;;;;;;28.70;22.90;;;6.30;99.90;;;;;;5031730;28;20661;-65
2021/04/21 05:17:59;;;;;;;29.45;21.80;;;6.40;99.90;;;;;;5029404;28;20211;-65
2021/04/21 05:20:49;;;;;;;28.20;20.48;;;6.50;99.90;;;;;;5005641;28;20664;-63
2021/04/21 05:23:34;;;;;;;25.40;20.45;;;6.60;99.90;;;;;;5017981;28;20213;-64
2021/04/21 05:26:12;;;;;;;27.63;22.08;;;6.60;99.90;;;;;;5028076;28;20182;-65
2021/04/21 05:29:32;;;;;;;30.67;22.52;;;6.60;99.90;;;;;;5029908;28;20240;-64
2021/04/21 05:32:35;;;;;;;28.67;21.45;;;6.60;99.90;;;;;;4980407;28;20342;-66
2021/04/21 05:35:31;;;;;;;27.63;22.25;;;6.70;99.90;;;;;;5020848;28;20191;-66
2021/04/21 05:38:18;;;;;;;26.75;22.30;;;6.80;99.90;;;;;;5028968;28;20299;-65
2021/04/21 05:41:15;;;;;;;32.65;22.83;;;7.00;99.90;;;;;;5029453;28;20219;-65
2021/04/21 05:44:05;;;;;;;29.73;24.60;;;7.10;99.90;;;;;;5022818;28;20537;-65
2021/04/21 05:46:48;;;;;;;29.17;23.05;;;7.20;99.90;;;;;;5028680;28;20197;-66
2021/04/21 05:49:34;;;;;;;28.70;22.53;;;7.30;99.90;;;;;;5029056;28;20211;-66
2021/04/21 05:52:31;;;;;;;28.33;22.17;;;7.40;99.90;;;;;;5018135;28;21373;-66
2021/04/21 05:55:32;;;;;;;32.20;23.53;;;7.50;99.90;;;;;;5028325;28;20450;-66
2021/04/21 05:58:03;;;;;;;28.70;22.50;;;7.60;99.90;;;;;;5028904;28;20432;-71
2021/04/21 06:01:06;;;;;;;29.50;23.37;;;7.70;99.90;;;;;;5027661;28;20895;-71
2021/04/21 06:03:37;;;;;;;31.10;25.07;;;7.60;99.90;;;;;;5022470;28;20428;-71
2021/04/21 06:06:04;;;;;;;27.30;22.93;;;7.70;99.90;;;;;;5029157;28;20412;-71
2021/04/21 06:08:31;;;;;;;28.50;23.43;;;7.70;99.90;;;;;;5029266;28;20417;-71
2021/04/21 06:10:57;;;;;;;27.43;22.63;;;7.80;99.90;;;;;;5029171;28;20432;-71
2021/04/21 06:13:27;;;;;;;28.67;22.93;;;7.90;99.90;;;;;;5029306;28;20843;-71
2021/04/21 06:15:53;;;;;;;32.27;25.20;;;8.00;99.90;;;;;;5026313;28;20785;-70
2021/04/21 06:18:21;;;;;;;30.17;23.80;;;8.10;99.90;;;;;;5028556;28;20435;-71
2021/04/21 06:20:46;;;;;;;27.93;21.50;;;8.20;99.90;;;;;;5028589;28;20561;-72
2021/04/21 06:23:14;;;;;;;26.97;22.33;;;8.30;99.90;;;;;;5033953;28;20455;-70
2021/04/21 06:25:42;;;;;;;27.73;22.17;;;8.40;99.90;;;;;;5028278;28;20182;-71
2021/04/21 06:28:17;;;;;;;26.10;21.70;;;8.50;99.90;;;;;;5028859;28;20455;-71
2021/04/21 06:30:46;;;;;;;23.27;19.80;;;8.60;99.90;;;;;;5027065;28;20472;-71
2021/04/21 06:33:11;;;;;;;24.13;21.37;;;8.70;99.90;;;;;;5028217;28;20508;-71
2021/04/21 06:35:38;;;;;;;25.00;20.70;;;8.80;99.90;;;;;;5028455;28;20461;-71
2021/04/21 06:38:06;;;;;;;25.27;20.30;;;8.90;99.90;;;;;;5028336;28;20512;-71
2021/04/21 06:40:34;;;;;;;22.03;19.60;;;9.00;99.90;;;;;;5028139;28;20425;-71
2021/04/21 06:43:00;;;;;;;22.20;19.90;;;9.10;99.90;;;;;;5027971;28;20448;-71
2021/04/21 06:45:35;;;;;;;22.37;19.70;;;9.30;99.90;;;;;;5028414;28;20436;-71
2021/04/21 06:48:02;;;;;;;23.43;19.47;;;9.40;99.90;;;;;;5028415;28;21298;-71
2021/04/21 06:50:31;;;;;;;22.33;19.30;;;9.50;99.90;;;;;;5028353;28;20539;-71
2021/04/21 06:53:09;;;;;;;23.97;20.10;;;9.60;99.90;;;;;;5025154;28;20926;-66
2021/04/21 06:55:35;;;;;;;21.90;19.50;;;9.70;99.90;;;;;;5027624;28;20422;-71
2021/04/21 06:58:14;;;;;;;20.07;17.30;;;9.80;99.90;;;;;;5024414;28;20544;-72
2021/04/21 07:00:40;;;;;;;21.33;18.47;;;9.90;99.90;;;;;;5029033;28;20539;-68
2021/04/21 07:03:05;;;;;;;20.97;18.53;;;10.00;99.90;;;;;;5030948;28;20508;-71
2021/04/21 07:05:33;;;;;;;22.40;18.70;;;10.10;99.90;;;;;;5017462;28;20190;-71
2021/04/21 07:08:06;;;;;;;21.80;18.83;;;10.30;99.90;;;;;;5014916;28;20183;-65
2021/04/21 07:10:38;;;;;;;21.20;18.90;;;10.40;99.90;;;;;;5027500;28;20482;-67
2021/04/21 07:13:09;;;;;;;20.67;18.47;;;10.70;91.80;;;;;;5013702;28;20473;-65
2021/04/21 07:15:35;;;;;;;20.73;18.63;;;10.80;82.30;;;;;;5019907;28;20421;-66
2021/04/21 07:18:02;;;;;;;20.97;18.20;;;11.00;70.30;;;;;;5015337;28;20422;-70
2021/04/21 07:20:28;;;;;;;19.97;17.57;;;11.20;68.30;;;;;;5022237;28;20429;-71
2021/04/21 07:22:54;;;;;;;21.30;16.87;;;11.40;53.10;;;;;;5045975;28;20456;-71
2021/04/21 07:25:21;;;;;;;19.67;17.40;;;11.70;49.50;;;;;;5031105;28;20702;-72
2021/04/21 07:27:52;;;;;;;19.03;16.97;;;12.00;34.20;;;;;;5030344;28;20428;-65
2021/04/21 07:30:27;;;;;;;20.00;15.83;;;12.30;23.80;;;;;;5024702;28;20470;-65
2021/04/21 07:32:54;;;;;;;19.20;15.03;;;12.60;1.00;;;;;;5030253;28;20409;-66
2021/04/21 07:35:23;;;;;;;17.13;15.17;;;12.80;1.00;;;;;;5029641;28;20436;-65
2021/04/21 07:37:50;;;;;;;16.83;15.10;;;12.90;1.00;;;;;;5030159;28;20461;-66
2021/04/21 07:40:42;;;;;;;16.40;14.70;;;13.20;1.00;;;;;;5030764;28;20452;-65
2021/04/21 07:43:10;;;;;;;17.33;15.40;;;13.40;1.00;;;;;;5022078;28;20524;-64
2021/04/21 07:45:45;;;;;;;17.97;16.13;;;13.60;1.00;;;;;;5029893;28;20426;-65
2021/04/21 07:48:32;;;;;;;16.40;14.70;;;13.80;1.00;;;;;;5030559;28;20509;-71
2021/04/21 07:51:20;;;;;;;17.90;14.47;;;14.00;1.00;;;;;;5029539;28;20509;-71
2021/04/21 07:54:06;;;;;;;16.90;15.10;;;14.00;1.00;;;;;;5023172;28;20478;-65
2021/04/21 07:56:49;;;;;;;15.63;14.13;;;14.00;1.00;;;;;;5030351;28;21234;-70
2021/04/21 07:59:20;;;;;;;16.17;14.60;;;14.10;1.00;;;;;;5027788;28;20776;-65
2021/04/21 08:01:47;;;;;;;16.60;15.00;;;14.00;1.00;;;;;;5030060;28;20436;-65
2021/04/21 08:04:23;;;;;;;16.40;14.70;;;14.00;1.00;;;;;;5029694;28;20514;-70
2021/04/21 08:06:52;;;;;;;15.63;14.00;;;13.90;1.00;;;;;;5029909;28;20451;-71
2021/04/21 08:09:18;;;;;;;16.40;14.70;;;13.90;1.00;;;;;;5029430;28;20460;-71
2021/04/21 08:11:44;;;;;;;15.50;14.00;;;13.90;1.00;;;;;;5029976;28;20425;-72
2021/04/21 08:14:11;;;;;;;15.07;13.60;;;14.00;1.00;;;;;;5030246;28;20523;-71
2021/04/21 08:16:37;;;;;;;15.60;14.20;;;14.10;1.00;;;;;;5029980;28;20869;-73
2021/04/21 08:19:17;;;;;;;17.10;15.30;;;14.20;1.00;;;;;;5030003;28;20431;-73
2021/04/21 08:21:47;;;;;;;16.30;14.70;;;14.40;1.00;;;;;;5029717;28;20201;-65
2021/04/21 08:24:15;;;;;;;15.90;14.20;;;14.60;1.00;;;;;;5030081;28;20828;-66
2021/04/21 08:26:42;;;;;;;16.87;15.27;;;14.80;1.00;;;;;;5030005;28;20881;-64
2021/04/21 08:29:11;;;;;;;16.40;14.90;;;15.00;1.00;;;;;;5029457;28;20458;-64
2021/04/21 08:31:37;;;;;;;16.50;14.80;;;14.90;99.90;;;;;;5030065;28;20958;-70
2021/04/21 08:34:04;;;;;;;16.27;14.57;;;15.00;99.90;;;;;;5029666;28;20468;-66
2021/04/21 08:36:30;;;;;;;16.40;14.77;;;15.00;99.90;;;;;;5029499;28;20433;-65
2021/04/21 08:38:56;;;;;;;15.93;14.43;;;15.10;1.00;;;;;;5031609;28;20441;-66
2021/04/21 08:41:22;;;;;;;16.80;15.40;;;15.20;1.00;;;;;;5031752;28;20428;-63
2021/04/21 08:43:51;;;;;;;16.50;14.90;;;15.50;99.90;;;;;;5022303;28;20197;-64
2021/04/21 08:46:18;;;;;;;17.87;14.70;;;15.70;99.90;;;;;;5023693;28;20505;-64
2021/04/21 08:48:45;;;;;;;15.77;14.27;;;15.90;99.90;;;;;;5024682;28;20454;-64
2021/04/21 08:51:18;;;;;;;16.80;15.10;;;15.90;99.90;;;;;;5030921;28;20436;-65
2021/04/21 08:53:54;;;;;;;15.90;14.50;;;16.00;99.90;;;;;;5029608;28;20473;-64
2021/04/21 08:56:22;;;;;;;17.50;15.80;;;16.10;1.00;;;;;;5028130;28;20437;-65
2021/04/21 08:58:50;;;;;;;16.10;14.60;;;16.30;99.90;;;;;;5031050;28;20424;-64
2021/04/21 09:01:17;;;;;;;16.23;14.73;;;16.90;1.00;;;;;;5034338;28;20440;-65
2021/04/21 09:03:44;;;;;;;17.67;15.50;;;17.40;1.00;;;;;;5034719;28;20417;-65
2021/04/21 09:06:10;;;;;;;18.50;16.60;;;17.80;99.90;;;;;;5031286;28;20448;-65
2021/04/21 09:08:38;;;;;;;16.10;14.60;;;18.10;1.00;;;;;;5027908;28;20468;-65
2021/04/21 09:11:04;;;;;;;15.30;13.70;;;18.40;99.90;;;;;;5017947;28;20421;-64
2021/04/21 09:13:30;;;;;;;17.73;16.03;;;18.60;99.90;;;;;;5031000;28;20495;-66
2021/04/21 09:15:57;;;;;;;17.00;15.30;;;19.10;99.90;;;;;;5028449;28;20790;-65
2021/04/21 09:18:30;;;;;;;16.03;14.60;;;19.60;1.00;;;;;;5030788;28;20424;-64
2021/04/21 09:20:56;;;;;;;16.50;14.90;;;20.30;16.30;;;;;;5029491;28;20416;-64
2021/04/21 09:23:22;;;;;;;16.20;14.60;;;20.90;1.00;;;;;;5030208;28;20483;-65
2021/04/21 09:25:54;;;;;;;15.27;13.93;;;21.40;99.90;;;;;;5030627;28;20433;-66
2021/04/21 09:28:22;;;;;;;15.77;14.23;;;22.00;1.00;;;;;;5029459;28;20183;-65
2021/04/21 09:30:56;;;;;;;15.33;13.80;;;22.10;99.90;;;;;;5029455;28;20560;-68
2021/04/21 09:33:26;;;;;;;15.40;13.80;;;22.60;99.90;;;;;;5027676;28;20500;-68
2021/04/21 09:35:51;;;;;;;15.27;13.93;;;23.10;99.90;;;;;;5030183;28;20937;-66
2021/04/21 09:38:24;;;;;;;14.07;12.80;;;23.60;99.90;;;;;;5028235;28;20417;-64
2021/04/21 09:40:54;;;;;;;15.50;14.20;;;23.50;99.90;;;;;;5028692;28;20217;-65
2021/04/21 09:43:23;;;;;;;15.10;13.90;;;23.70;99.90;;;;;;5025445;28;20805;-66
2021/04/21 09:45:57;;;;;;;16.27;14.33;;;24.00;99.90;;;;;;5025731;28;20437;-66
2021/04/21 09:48:43;;;;;;;14.40;12.90;;;24.30;99.90;;;;;;5027494;28;20448;-65
2021/04/21 09:51:11;;;;;;;14.93;13.27;;;24.50;99.90;;;;;;5028568;28;20432;-66
2021/04/21 09:53:47;;;;;;;15.73;14.23;;;24.50;99.90;;;;;;5027556;28;20966;-64
2021/04/21 09:56:24;;;;;;;14.10;12.90;;;23.80;99.90;;;;;;5027894;28;20460;-66
2021/04/21 09:59:02;;;;;;;13.23;12.03;;;23.40;99.90;;;;;;5026896;28;20429;-64
2021/04/21 10:01:34;;;;;;;12.73;11.53;;;22.90;99.90;;;;;;5035317;28;20419;-65
2021/04/21 10:04:22;;;;;;;12.27;11.17;;;22.90;99.90;;;;;;5030515;28;20441;-65
2021/04/21 10:06:53;;;;;;;12.70;11.10;;;22.70;99.90;;;;;;5028459;28;20443;-65
2021/04/21 10:09:28;;;;;;;14.00;12.80;;;23.00;99.90;;;;;;5028161;28;20420;-65
2021/04/21 10:12:22;;;;;;;13.53;12.43;;;23.60;99.90;;;;;;5027512;28;21196;-64
2021/04/21 10:15:00;;;;;;;13.67;12.13;;;24.00;99.90;;;;;;5039064;28;20466;-66
2021/04/21 10:17:26;;;;;;;11.43;10.43;;;24.20;99.90;;;;;;5027121;28;21023;-66
2021/04/21 10:19:51;;;;;;;9.03;8.23;;;24.70;99.90;;;;;;5028283;28;20430;-66
2021/04/21 10:22:17;;;;;;;10.50;9.70;;;24.80;99.90;;;;;;5027646;28;20540;-66
2021/04/21 10:24:43;;;;;;;11.10;10.20;;;24.90;99.90;;;;;;5028351;28;20240;-66
2021/04/21 10:27:10;;;;;;;12.93;11.73;;;25.20;99.90;;;;;;5028127;28;20513;-66
2021/04/21 10:29:36;;;;;;;11.93;10.73;;;25.20;99.90;;;;;;5028330;28;20242;-66
2021/04/21 10:32:02;;;;;;;11.90;10.87;;;25.60;99.90;;;;;;5027263;28;20444;-64
2021/04/21 10:34:28;;;;;;;12.67;11.57;;;25.50;99.90;;;;;;5031983;28;20452;-64
2021/04/21 10:36:54;;;;;;;14.13;12.10;;;25.90;99.90;;;;;;5031343;28;20436;-63
2021/04/21 10:39:37;;;;;;;13.50;12.40;;;25.70;99.90;;;;;;5032426;28;20416;-64
2021/04/21 10:42:17;;;;;;;17.77;15.93;;;25.60;99.90;;;;;;5032309;28;20248;-64
2021/04/21 10:44:45;;;;;;;12.67;11.37;;;25.20;99.90;;;;;;5026718;28;20433;-65
2021/04/21 10:47:13;;;;;;;10.53;9.47;;;25.60;99.90;;;;;;5028624;28;20441;-65
2021/04/21 10:50:08;;;;;;;12.40;11.13;;;25.80;99.90;;;;;;5032315;28;20417;-65
2021/04/21 10:52:39;;;;;;;12.33;11.30;;;26.00;99.90;;;;;;5029708;28;20420;-64
2021/04/21 10:55:08;;;;;;;12.40;10.63;;;26.20;99.90;;;;;;5031247;28;20778;-64
2021/04/21 10:57:58;;;;;;;11.30;10.40;;;26.00;99.90;;;;;;5031912;28;20907;-65
2021/04/21 11:00:35;;;;;;;11.57;10.60;;;25.50;99.90;;;;;;5030235;28;20437;-64
2021/04/21 11:03:03;;;;;;;10.83;9.83;;;24.50;99.90;;;;;;5042237;28;20424;-64
2021/04/21 11:05:40;;;;;;;11.53;10.40;;;23.90;99.90;;;;;;5024998;28;20992;-64
2021/04/21 11:08:10;;;;;;;10.03;9.30;;;23.80;99.90;;;;;;5029546;28;20458;-64
2021/04/21 11:11:01;;;;;;;10.67;9.87;;;24.00;99.90;;;;;;5028544;28;20823;-65
2021/04/21 11:13:40;;;;;;;10.40;9.40;;;24.30;99.90;;;;;;5027324;28;20461;-65
2021/04/21 11:16:29;;;;;;;9.97;8.90;;;25.10;99.90;;;;;;5026995;28;20433;-64
2021/04/21 11:19:14;;;;;;;10.80;9.57;;;25.60;99.90;;;;;;5028180;28;20437;-63
2021/04/21 11:21:40;;;;;;;10.90;10.00;;;25.00;99.90;;;;;;5025571;28;20835;-64
2021/04/21 11:24:06;;;;;;;11.20;10.13;;;25.70;99.90;;;;;;5028315;28;20551;-64
2021/04/21 11:26:38;;;;;;;10.27;9.40;;;26.20;99.90;;;;;;5028753;28;20329;-64
2021/04/21 11:29:14;;;;;;;10.47;9.60;;;27.10;99.90;;;;;;5023999;28;20703;-64
2021/04/21 11:31:39;;;;;;;10.33;9.47;;;27.50;99.90;;;;;;5023874;28;20438;-68
2021/04/21 11:34:34;;;;;;;9.80;8.87;;;27.40;99.90;;;;;;5025002;28;20461;-69
2021/04/21 11:36:59;;;;;;;10.17;9.37;;;27.00;99.90;;;;;;5030699;28;20244;-69
2021/04/21 11:39:43;;;;;;;10.10;9.30;;;27.00;99.90;;;;;;5030321;28;20413;-69
2021/04/21 11:42:20;;;;;;;8.80;8.00;;;26.70;99.90;;;;;;5030644;28;20183;-68
2021/04/21 11:45:25;;;;;;;9.70;9.00;;;26.70;99.90;;;;;;5029920;28;20432;-69
2021/04/21 11:48:03;;;;;;;10.07;9.10;;;27.10;99.90;;;;;;4982900;28;20949;-69
2021/04/21 11:50:34;;;;;;;9.30;8.60;;;27.80;99.90;;;;;;4985442;28;20435;-69
2021/04/21 11:53:13;;;;;;;9.47;8.57;;;27.80;99.90;;;;;;4980411;28;20784;-69
2021/04/21 11:55:59;;;;;;;9.80;9.00;;;28.20;99.90;;;;;;4982133;28;21000;-68
2021/04/21 11:58:33;;;;;;;10.13;8.30;;;28.30;99.90;;;;;;4987489;28;20422;-65
2021/04/21 12:01:04;;;;;;;10.87;9.90;;;27.50;99.90;;;;;;4987468;28;20466;-68
2021/04/21 12:03:38;;;;;;;10.13;9.13;;;26.80;99.90;;;;;;4984996;28;20438;-68
2021/04/21 12:06:12;;;;;;;10.40;9.50;;;25.90;99.90;;;;;;4984876;28;20430;-64
2021/04/21 12:08:40;;;;;;;9.60;8.90;;;25.80;99.90;;;;;;4985693;28;20419;-66
2021/04/21 12:11:07;;;;;;;9.90;9.10;;;26.00;99.90;;;;;;4986748;28;20431;-69
2021/04/21 12:13:39;;;;;;;9.67;8.87;;;25.40;99.90;;;;;;4985209;28;20462;-62
2021/04/21 12:16:28;;;;;;;9.10;8.30;;;24.80;99.90;;;;;;4987131;28;20932;-63
2021/04/21 12:18:59;;;;;;;10.27;9.27;;;24.20;99.90;;;;;;5005038;28;20444;-64
2021/04/21 12:21:35;;;;;;;9.17;8.27;;;23.50;99.90;;;;;;5012753;28;20417;-66
2021/04/21 12:24:03;;;;;;;10.13;9.23;;;23.80;99.90;;;;;;5014770;28;20439;-66
2021/04/21 12:26:30;;;;;;;10.23;8.60;;;23.70;99.90;;;;;;5012908;28;20414;-66
2021/04/21 12:28:56;;;;;;;9.53;8.60;;;23.50;99.90;;;;;;5040750;28;20433;-63
2021/04/21 12:31:22;;;;;;;10.97;9.97;;;23.30;99.90;;;;;;5011815;28;20426;-63
2021/04/21 12:33:49;;;;;;;9.17;8.37;;;22.90;99.90;;;;;;5026805;28;20480;-64
2021/04/21 12:36:17;;;;;;;15.40;9.40;;;23.00;99.90;;;;;;5045104;28;20430;-63
2021/04/21 12:38:43;;;;;;;10.70;9.70;;;23.30;99.90;;;;;;5029015;28;20429;-63
2021/04/21 12:41:20;;;;;;;10.87;9.67;;;23.20;99.90;;;;;;5027713;28;20743;-64
2021/04/21 12:43:45;;;;;;;9.83;8.83;;;23.50;99.90;;;;;;5044580;28;20273;-63
2021/04/21 12:46:17;;;;;;;9.70;8.80;;;24.30;99.90;;;;;;5029450;28;20872;-64
2021/04/21 12:48:54;;;;;;;10.67;9.77;;;24.70;99.90;;;;;;5029226;28;20698;-65
2021/04/21 12:51:29;;;;;;;10.63;9.80;;;25.20;99.90;;;;;;5029230;28;20425;-67
2021/04/21 12:53:55;;;;;;;9.60;8.70;;;25.50;99.90;;;;;;5029056;28;20792;-64
2021/04/21 12:56:21;;;;;;;9.80;8.80;;;25.50;99.90;;;;;;5028936;28;20420;-67
2021/04/21 12:58:47;;;;;;;9.60;8.67;;;26.00;99.90;;;;;;5028667;28;20413;-65
2021/04/21 13:01:13;;;;;;;10.20;8.93;;;26.10;99.90;;;;;;5028736;28;20262;-64
2021/04/21 13:03:53;;;;;;;10.13;9.37;;;26.60;99.90;;;;;;5029163;28;20573;-65
2021/04/21 13:06:52;;;;;;;9.63;8.50;;;26.60;99.90;;;;;;5028719;28;21263;-66
2021/04/21 13:09:20;;;;;;;10.50;8.30;;;26.20;99.90;;;;;;5028600;28;20767;-69